Whittier, AK (99693)

5:33 AM AKDT on August 28, 2015 (GMT -0800)
AKDOT | | Change Station
CLOSE
Current Station
Personal Weather Station
Location: Girdwood, AK
Elevation: 101 ft
Nearby Weather Stations
Active Advisory: High Wind Warning Active Notice: Record Report

Elev 101 ft 60.78 °N, 148.73 °W | Updated 40 minutes ago

Clear
Clear
53 °F
Feels Like 53 °F
N
22
Wind Variable Wind from SW
Gusts 40.0 mph

Today
High -- | Low -- °F
--% Chance of Precip.
Yesterday
High -- | Low -- °F
Precip. -- in
6:37 AM 9:12 PM
Waxing Gibbous, 98% visible
Pressure 29.73 in
Visibility 10.0 miles
Clouds Clear
Dew Point 28 °F
Humidity 38%
Rainfall in
Snow Depth Not available.
UV 0 out of 12
Pollen Not available.
Air Quality Not available.
Flu Activity Not available.
METAR PATO 281253Z AUTO 28008KT 10SM CLR 09/M02 A2972 RMK AO2 SLP065 T00891022 TSNO
Pressure 29.73 in
Visibility 10.0 miles
Clouds Clear
Dew Point 28 °F
Humidity 38%
Rainfall in
Snow Depth Not available.
UV 0 out of 12
Pollen Not available.
Air Quality Not available.
Flu Activity Not available.
METAR PATO 281253Z AUTO 28008KT 10SM CLR 09/M02 A2972 RMK AO2 SLP065 T00891022 TSNO

10-Day Weather Forecast

×

Almanac

Astronomy

Aug. 28, 2015 Rise Set
Actual Time
Civil Twilight
Nautical Twilight
Astronomical Twilight
Moon
Length of Visible Light
Length of Day
Tomorrow will be .
, % of the Moon is Illuminated

Today's Extremes

State Highs State Lows

Community

WunderPhotos

Upload Photos

1,850,376 photos uploaded!

WunderBlogs® & News

Nearby

Air Quality

  Air Quality AQ Index Pollutant
Not available.

Snow Depth

Station Depth Elevation

Earthquake Activity

City Distance Mag. Time & Date
Minimum magnitude displayed is 2.5.

Coastal Water Temperatures

Place Temperature

Stations

Nearby Weather Stations

Station Location Temp. Windchill Dew Point Humidity Wind Precip. Elev Updated Type
                   
High Wind Warning
Statement as of 4:39 AM AKDT on August 28, 2015

... High Wind Warning remains in effect until 10 am akdt this
morning for Whittier and Seward...

* location... Seward and Whittier.

* Wind... Seward... north winds 20 to 35 mph with gusts to 55 mph.
Whittier... west winds 25 to 40 mph with gusts to 60 mph.

* Timing... winds will begin to diminish late this morning.

* Impacts... travel may be difficult. Trees and power lines may
be blown over. Loose debris can be moved and damage property.

Precautionary/preparedness actions...

A High Wind Warning means a hazardous high wind event is expected
or occurring. People are urged to secure loose objects that could
be blown around or damaged by the wind.